createdAt,value
2019-02-26T00:00:27.722Z,91.20
2019-02-26T00:02:59.301Z,92.50
2019-02-26T00:05:26.056Z,92.10
2019-02-26T00:07:53.385Z,91.40
2019-02-26T00:10:24.641Z,92.10
2019-02-26T00:12:48.160Z,92.40
2019-02-26T00:15:14.317Z,91.90
2019-02-26T00:17:42.959Z,92.10
2019-02-26T00:20:10.937Z,91.60
2019-02-26T00:22:38.965Z,91.70
2019-02-26T00:25:08.504Z,91.30
2019-02-26T00:27:35.943Z,92.10
2019-02-26T00:30:07.428Z,92.90
2019-02-26T00:32:36.591Z,93.80
2019-02-26T00:35:04.260Z,93.60
2019-02-26T00:37:30.728Z,93.60
2019-02-26T00:39:57.039Z,93.50
2019-02-26T00:42:24.307Z,93.50
2019-02-26T00:44:53.370Z,93.60
2019-02-26T00:47:19.416Z,93.40
2019-02-26T00:49:46.377Z,93.20
2019-02-26T00:52:15.577Z,93.00
2019-02-26T00:54:41.801Z,93.00
2019-02-26T00:57:08.626Z,92.90
2019-02-26T00:59:36.640Z,92.90
2019-02-26T01:02:04.197Z,93.20
2019-02-26T01:04:30.423Z,93.40
2019-02-26T01:06:57.349Z,93.40
2019-02-26T01:09:25.177Z,93.40
2019-02-26T01:11:54.032Z,93.50
2019-02-26T01:14:20.771Z,93.50
2019-02-26T01:16:49.497Z,93.50
2019-02-26T01:19:17.544Z,93.50
2019-02-26T01:21:43.724Z,93.70
2019-02-26T01:24:09.909Z,93.80
2019-02-26T01:26:36.103Z,93.70
2019-02-26T01:29:02.271Z,93.70
2019-02-26T01:31:29.307Z,93.70
2019-02-26T01:33:57.400Z,93.60
2019-02-26T01:36:25.331Z,93.60
2019-02-26T01:38:53.142Z,93.60
2019-02-26T01:41:22.789Z,93.60
2019-02-26T01:43:49.769Z,93.70
2019-02-26T01:46:16.937Z,93.60
2019-02-26T01:48:44.007Z,93.50
2019-02-26T01:51:10.210Z,93.40
2019-02-26T01:53:36.382Z,93.40
2019-02-26T01:56:04.578Z,93.40
2019-02-26T01:58:33.455Z,93.30
2019-02-26T02:00:58.733Z,93.30
2019-02-26T02:03:25.487Z,93.10
2019-02-26T02:05:54.794Z,93.10
2019-02-26T02:08:24.380Z,93.00
2019-02-26T02:10:49.635Z,93.10
2019-02-26T02:13:17.329Z,93.40
2019-02-26T02:15:44.432Z,93.50
2019-02-26T02:18:11.597Z,93.50
2019-02-26T02:20:37.901Z,93.50
2019-02-26T02:23:05.374Z,93.50
2019-02-26T02:25:33.798Z,93.50
2019-02-26T02:28:02.804Z,93.50
2019-02-26T02:30:31.364Z,93.50
2019-02-26T02:32:57.545Z,93.60
2019-02-26T02:35:24.507Z,93.60
2019-02-26T02:37:53.323Z,93.50
2019-02-26T02:40:18.809Z,93.40
2019-02-26T02:42:48.479Z,93.40
2019-02-26T02:45:16.217Z,93.40
2019-02-26T02:47:41.216Z,93.40
2019-02-26T02:50:15.070Z,93.20
2019-02-26T02:52:43.194Z,93.30
2019-02-26T02:55:10.617Z,93.30
2019-02-26T02:57:37.744Z,93.30
2019-02-26T03:00:11.929Z,93.30
2019-02-26T03:02:42.814Z,93.70
2019-02-26T03:05:08.388Z,93.50
2019-02-26T03:07:35.784Z,93.60
2019-02-26T03:10:06.517Z,93.50
2019-02-26T03:12:31.916Z,93.50
2019-02-26T03:14:59.875Z,93.50
2019-02-26T03:17:26.172Z,93.60
2019-02-26T03:19:52.680Z,93.60
2019-02-26T03:22:21.555Z,93.60
2019-02-26T03:24:48.419Z,93.60
2019-02-26T03:27:15.070Z,93.50
2019-02-26T03:29:41.256Z,93.50
2019-02-26T03:32:07.409Z,93.40
2019-02-26T03:34:33.597Z,93.30
2019-02-26T03:37:00.941Z,93.20
2019-02-26T03:39:27.907Z,93.30
2019-02-26T03:41:56.355Z,93.40
2019-02-26T03:44:22.267Z,93.40
2019-02-26T03:46:48.470Z,93.30
2019-02-26T03:49:14.670Z,93.30
2019-02-26T03:51:40.881Z,93.20
2019-02-26T03:54:07.049Z,93.10
2019-02-26T03:56:33.244Z,93.20
2019-02-26T03:59:00.787Z,93.10
2019-02-26T04:01:27.869Z,93.20
2019-02-26T04:03:55.076Z,93.20
2019-02-26T04:06:22.225Z,93.10
2019-02-26T04:08:50.452Z,93.10
2019-02-26T04:11:19.242Z,93.20
2019-02-26T04:13:46.021Z,93.20
2019-02-26T04:16:12.847Z,93.20
2019-02-26T04:18:39.071Z,93.20
2019-02-26T04:21:06.016Z,93.10
2019-02-26T04:23:35.907Z,93.20
2019-02-26T04:26:20.833Z,93.30
2019-02-26T04:28:51.505Z,93.30
2019-02-26T04:31:52.151Z,93.20
2019-02-26T04:34:23.383Z,93.20
2019-02-26T04:37:01.547Z,93.40
2019-02-26T04:39:44.303Z,93.50
2019-02-26T04:42:15.333Z,93.50
2019-02-26T04:45:09.287Z,93.50
2019-02-26T04:47:48.261Z,93.50
2019-02-26T04:50:13.934Z,93.50
2019-02-26T04:52:43.281Z,93.50
2019-02-26T04:55:08.532Z,93.50
2019-02-26T04:57:34.715Z,93.50
2019-02-26T05:00:02.455Z,93.50
2019-02-26T05:02:29.266Z,93.40
2019-02-26T05:04:55.459Z,93.20
2019-02-26T05:07:21.638Z,93.10
2019-02-26T05:09:51.077Z,93.10
2019-02-26T05:12:16.222Z,93.20
2019-02-26T05:14:42.445Z,93.30
2019-02-26T05:17:08.693Z,93.20
2019-02-26T05:19:36.542Z,93.20
2019-02-26T05:22:04.453Z,93.00
2019-02-26T05:24:31.189Z,93.10
2019-02-26T05:26:57.435Z,93.20
2019-02-26T05:29:23.605Z,93.20
2019-02-26T05:31:49.809Z,93.00
2019-02-26T05:34:18.109Z,92.90
2019-02-26T05:36:46.139Z,92.90
2019-02-26T05:39:14.550Z,92.80
2019-02-26T05:41:40.821Z,92.70
2019-02-26T05:44:11.000Z,92.60
2019-02-26T05:46:37.185Z,92.50
2019-02-26T05:49:05.564Z,92.20
2019-02-26T05:51:32.846Z,92.50
2019-02-26T05:54:02.536Z,92.60
2019-02-26T05:56:28.893Z,92.50
2019-02-26T05:58:55.052Z,92.50
2019-02-26T06:01:22.483Z,92.50
2019-02-26T06:03:51.762Z,92.50
2019-02-26T06:06:17.447Z,92.30
2019-02-26T06:08:43.629Z,92.10
2019-02-26T06:11:11.045Z,92.10
2019-02-26T06:13:38.238Z,92.20
2019-02-26T06:16:08.297Z,92.30
2019-02-26T06:18:34.528Z,92.20
2019-02-26T06:21:01.825Z,92.00
2019-02-26T06:23:33.916Z,91.80
2019-02-26T06:26:02.292Z,91.60
2019-02-26T06:28:27.804Z,91.40
2019-02-26T06:30:55.996Z,91.30
2019-02-26T06:33:22.180Z,91.30
2019-02-26T06:35:48.444Z,91.30
2019-02-26T06:38:14.612Z,91.30
2019-02-26T06:40:42.319Z,91.00
2019-02-26T06:43:08.872Z,90.90
2019-02-26T06:45:35.579Z,90.80
2019-02-26T06:48:03.128Z,90.60
2019-02-26T06:50:29.308Z,90.50
2019-02-26T06:52:55.541Z,90.70
2019-02-26T06:55:21.723Z,90.60
2019-02-26T06:57:50.787Z,90.50
2019-02-26T07:00:19.707Z,90.20
2019-02-26T07:02:46.176Z,90.10
2019-02-26T07:05:13.351Z,90.10
2019-02-26T07:07:39.508Z,89.70
2019-02-26T07:10:16.009Z,89.30
2019-02-26T07:12:43.025Z,89.40
2019-02-26T07:15:12.236Z,89.10
2019-02-26T07:17:40.645Z,88.30
2019-02-26T07:20:07.585Z,87.80
2019-02-26T07:22:33.728Z,86.60
2019-02-26T07:25:00.238Z,85.80
2019-02-26T07:27:28.693Z,85.50
2019-02-26T07:29:54.558Z,85.90
2019-02-26T07:32:22.177Z,86.00
2019-02-26T07:34:50.202Z,85.50
2019-02-26T07:37:16.925Z,85.10
2019-02-26T07:39:44.335Z,84.80
2019-02-26T07:42:13.529Z,83.90
2019-02-26T07:44:39.388Z,82.50
2019-02-26T07:47:06.728Z,80.40
2019-02-26T07:49:33.641Z,80.00
2019-02-26T07:52:02.630Z,80.00
2019-02-26T07:54:28.838Z,79.20
2019-02-26T07:56:57.434Z,79.10
2019-02-26T07:59:27.618Z,76.90
2019-02-26T08:01:51.452Z,74.80
2019-02-26T08:04:18.395Z,74.70
2019-02-26T08:06:44.804Z,74.30
2019-02-26T08:09:13.521Z,74.60
2019-02-26T08:11:41.231Z,73.50
2019-02-26T08:14:07.161Z,70.80
2019-02-26T08:16:33.355Z,67.00
2019-02-26T08:19:01.421Z,66.10
2019-02-26T08:21:29.573Z,62.10
2019-02-26T08:23:55.911Z,56.30
2019-02-26T08:26:24.171Z,50.50
2019-02-26T08:28:50.183Z,47.00
2019-02-26T08:31:18.499Z,43.60
2019-02-26T08:33:48.654Z,39.30
2019-02-26T08:36:14.214Z,39.30
2019-02-26T08:38:40.512Z,39.70
2019-02-26T08:41:07.017Z,39.10
2019-02-26T08:43:33.216Z,35.70
2019-02-26T08:45:59.925Z,35.30
2019-02-26T08:48:27.021Z,35.90
2019-02-26T08:50:55.658Z,34.70
2019-02-26T08:53:22.450Z,34.50
2019-02-26T08:55:51.532Z,33.40
2019-02-26T08:58:19.949Z,31.50
2019-02-26T09:00:47.843Z,30.50
2019-02-26T09:03:15.589Z,30.50
2019-02-26T09:05:43.289Z,30.10
2019-02-26T09:08:11.445Z,30.00
2019-02-26T09:10:38.729Z,30.20
2019-02-26T09:13:06.244Z,30.00
2019-02-26T09:15:35.905Z,28.90
2019-02-26T09:18:01.939Z,28.80
2019-02-26T09:20:28.113Z,29.40
2019-02-26T09:22:56.265Z,28.50
2019-02-26T09:25:25.554Z,27.50
2019-02-26T09:27:50.837Z,28.50
2019-02-26T09:30:19.343Z,28.60
2019-02-26T09:32:45.805Z,28.60
2019-02-26T09:35:13.703Z,28.80
2019-02-26T09:37:39.869Z,26.90
2019-02-26T09:40:17.025Z,25.90
2019-02-26T09:42:46.407Z,26.40
2019-02-26T09:45:18.555Z,27.00
2019-02-26T09:47:47.340Z,27.10
2019-02-26T09:50:15.249Z,27.10
2019-02-26T09:52:41.667Z,27.20
2019-02-26T09:55:10.728Z,27.20
2019-02-26T09:57:37.086Z,26.30
2019-02-26T10:00:14.575Z,25.30
2019-02-26T10:02:42.566Z,23.50
2019-02-26T10:05:11.663Z,23.00
2019-02-26T10:07:39.413Z,24.10
2019-02-26T10:10:11.500Z,23.90
2019-02-26T10:12:43.506Z,22.40
2019-02-26T10:15:11.933Z,22.40
2019-02-26T10:17:40.806Z,22.90
2019-02-26T10:20:11.492Z,21.20
2019-02-26T10:22:38.644Z,20.50
2019-02-26T10:25:07.769Z,21.20
2019-02-26T10:27:36.124Z,21.20
2019-02-26T10:30:07.171Z,22.60
2019-02-26T10:32:32.873Z,23.70
2019-02-26T10:34:59.141Z,23.30
2019-02-26T10:37:25.409Z,23.10
2019-02-26T10:39:52.235Z,22.30
2019-02-26T10:42:19.726Z,21.40
2019-02-26T10:44:45.920Z,20.40
2019-02-26T10:47:12.150Z,20.90
2019-02-26T10:49:38.426Z,21.60
2019-02-26T10:52:04.593Z,20.80
2019-02-26T10:54:34.609Z,20.40
2019-02-26T10:57:00.392Z,20.70
2019-02-26T10:59:26.962Z,21.40
2019-02-26T11:01:55.283Z,21.30
2019-02-26T11:04:21.254Z,21.10
2019-02-26T11:06:47.425Z,21.00
2019-02-26T11:09:17.389Z,21.60
2019-02-26T11:11:42.302Z,21.30
2019-02-26T11:14:10.700Z,20.70
2019-02-26T11:16:39.034Z,19.20
2019-02-26T11:19:06.983Z,20.60
2019-02-26T11:21:33.162Z,20.70
2019-02-26T11:24:00.743Z,19.70
2019-02-26T11:26:27.420Z,19.80
2019-02-26T11:28:53.617Z,19.60
2019-02-26T11:31:24.374Z,20.10
2019-02-26T11:33:48.212Z,19.80
2019-02-26T11:36:15.711Z,21.10
2019-02-26T11:38:44.388Z,21.60
2019-02-26T11:41:10.381Z,23.10
2019-02-26T11:43:36.553Z,23.80
2019-02-26T11:46:03.846Z,21.70
2019-02-26T11:48:33.162Z,22.50
2019-02-26T11:51:00.972Z,23.50
2019-02-26T11:53:29.590Z,23.30
2019-02-26T11:55:56.941Z,23.70
2019-02-26T11:58:24.246Z,22.70
2019-02-26T12:00:52.652Z,21.90
2019-02-26T12:03:22.827Z,21.30
2019-02-26T12:05:48.981Z,22.10
2019-02-26T12:08:19.097Z,22.40
2019-02-26T12:10:43.278Z,20.40
2019-02-26T12:13:09.480Z,22.40
2019-02-26T12:15:38.369Z,24.00
2019-02-26T12:18:03.739Z,25.80
2019-02-26T12:20:29.950Z,26.60
2019-02-26T12:22:56.116Z,27.00
2019-02-26T12:25:22.317Z,27.40
2019-02-26T12:27:48.582Z,28.50
2019-02-26T12:30:20.789Z,28.70
2019-02-26T12:32:48.054Z,29.60
2019-02-26T12:35:17.833Z,31.30
2019-02-26T12:37:43.342Z,30.20
2019-02-26T12:40:19.461Z,29.20
2019-02-26T12:42:46.258Z,29.20
2019-02-26T12:45:18.200Z,30.40
2019-02-26T12:47:48.128Z,31.10
2019-02-26T12:50:15.072Z,29.30
2019-02-26T12:52:42.290Z,29.60
2019-02-26T12:55:10.425Z,30.70
2019-02-26T12:57:38.760Z,32.00
2019-02-26T13:00:10.862Z,31.50
2019-02-26T13:02:39.768Z,32.30
2019-02-26T13:05:10.116Z,31.90
2019-02-26T13:07:35.420Z,30.70
2019-02-26T13:10:03.844Z,31.90
2019-02-26T13:12:32.322Z,31.00
2019-02-26T13:15:04.873Z,30.90
2019-02-26T13:17:32.370Z,30.00
2019-02-26T13:20:01.017Z,28.90
2019-02-26T13:22:26.873Z,27.50
2019-02-26T13:24:53.043Z,26.90
2019-02-26T13:27:19.255Z,27.70
2019-02-26T13:29:53.176Z,27.60
2019-02-26T13:32:17.428Z,27.40
2019-02-26T13:34:42.561Z,27.30
2019-02-26T13:37:08.792Z,28.40
2019-02-26T13:39:38.565Z,27.90
2019-02-26T13:42:05.709Z,27.90
2019-02-26T13:44:31.164Z,28.60
2019-02-26T13:46:57.337Z,28.20
2019-02-26T13:49:23.560Z,28.10
2019-02-26T13:51:49.912Z,28.80
2019-02-26T13:54:16.176Z,29.40
2019-02-26T13:56:42.372Z,30.40
2019-02-26T13:59:08.757Z,30.50
2019-02-26T14:01:34.928Z,30.00
2019-02-26T14:04:02.279Z,30.00
2019-02-26T14:06:28.474Z,29.20
2019-02-26T14:08:54.751Z,30.30
2019-02-26T14:11:20.909Z,30.40
2019-02-26T14:13:47.123Z,30.40
2019-02-26T14:16:13.280Z,31.30
2019-02-26T14:18:40.561Z,31.80
2019-02-26T14:21:06.772Z,32.40
2019-02-26T14:23:35.071Z,33.10
2019-02-26T14:26:01.073Z,31.80
2019-02-26T14:28:28.297Z,34.00
2019-02-26T14:30:54.459Z,33.30
2019-02-26T14:33:20.628Z,33.10
2019-02-26T14:35:47.233Z,33.40
2019-02-26T14:38:13.426Z,33.90
2019-02-26T14:40:39.728Z,34.10
2019-02-26T14:43:06.891Z,33.70
2019-02-26T14:45:33.092Z,33.70
2019-02-26T14:47:59.243Z,33.90
2019-02-26T14:50:26.506Z,34.30
2019-02-26T14:52:52.837Z,33.90
2019-02-26T14:55:19.046Z,34.70
2019-02-26T14:57:45.496Z,33.80
2019-02-26T15:00:26.709Z,34.90
2019-02-26T15:02:53.285Z,34.90
2019-02-26T15:05:19.469Z,34.80
2019-02-26T15:07:45.620Z,35.70
2019-02-26T15:10:11.810Z,35.70
2019-02-26T15:12:37.973Z,36.20
2019-02-26T15:15:07.880Z,36.50
2019-02-26T15:17:34.049Z,37.40
2019-02-26T15:20:00.453Z,37.90
2019-02-26T15:22:26.765Z,37.00
2019-02-26T15:24:52.992Z,37.20
2019-02-26T15:27:19.159Z,36.80
2019-02-26T15:29:45.625Z,37.40
2019-02-26T15:32:11.845Z,38.00
2019-02-26T15:34:51.601Z,38.10
2019-02-26T15:37:17.806Z,37.80
2019-02-26T15:39:43.967Z,38.20
2019-02-26T15:42:10.454Z,38.90
2019-02-26T15:44:36.639Z,38.10
2019-02-26T15:47:02.999Z,39.30
2019-02-26T15:49:29.328Z,39.50
2019-02-26T15:51:55.508Z,40.30
2019-02-26T15:54:21.732Z,40.10
2019-02-26T15:56:48.085Z,40.10
2019-02-26T15:59:14.280Z,40.60
2019-02-26T16:01:40.673Z,40.90
2019-02-26T16:04:07.013Z,41.60
2019-02-26T16:06:33.296Z,41.80
2019-02-26T16:08:59.474Z,42.00
2019-02-26T16:11:26.122Z,42.80
2019-02-26T16:13:52.332Z,43.40
2019-02-26T16:16:18.521Z,43.50
2019-02-26T16:18:44.811Z,43.10
2019-02-26T16:21:10.995Z,43.50
2019-02-26T16:23:37.176Z,44.00
2019-02-26T16:26:05.694Z,44.40
2019-02-26T16:28:31.758Z,45.00
2019-02-26T16:30:58.285Z,45.40
2019-02-26T16:33:24.492Z,45.90
2019-02-26T16:35:52.279Z,47.30
2019-02-26T16:38:19.350Z,47.10
2019-02-26T16:40:45.865Z,47.60
2019-02-26T16:43:12.040Z,48.20
2019-02-26T16:45:38.438Z,49.20
2019-02-26T16:48:04.721Z,49.50
2019-02-26T16:50:30.995Z,50.10
2019-02-26T16:53:00.429Z,51.20
2019-02-26T16:55:26.445Z,50.80
2019-02-26T16:57:52.693Z,51.50
2019-02-26T17:00:20.933Z,51.90
2019-02-26T17:02:47.449Z,52.10
2019-02-26T17:05:15.063Z,52.00
2019-02-26T17:07:41.488Z,52.30
2019-02-26T17:10:19.610Z,52.80
2019-02-26T17:12:50.753Z,53.30
2019-02-26T17:15:19.128Z,53.60
2019-02-26T17:17:45.433Z,54.10
2019-02-26T17:20:11.600Z,55.20
2019-02-26T17:22:38.417Z,55.70
2019-02-26T17:25:07.061Z,55.90
2019-02-26T17:27:33.673Z,55.50
2019-02-26T17:29:59.900Z,55.50
2019-02-26T17:32:26.127Z,55.50
2019-02-26T17:34:53.774Z,56.20
2019-02-26T17:37:20.441Z,56.20
2019-02-26T17:39:46.712Z,56.20
2019-02-26T17:42:13.104Z,56.50
2019-02-26T17:44:39.288Z,56.60
2019-02-26T17:47:05.448Z,57.10
2019-02-26T17:49:33.660Z,57.70
2019-02-26T17:51:59.738Z,58.10
2019-02-26T17:54:25.919Z,58.70
2019-02-26T17:56:52.131Z,59.40
2019-02-26T17:59:40.041Z,59.90
2019-02-26T18:02:06.868Z,60.60
2019-02-26T18:04:33.331Z,61.30
2019-02-26T18:07:00.368Z,62.20
2019-02-26T18:09:27.131Z,62.60
2019-02-26T18:11:53.531Z,63.00
2019-02-26T18:14:21.559Z,63.10
2019-02-26T18:16:47.765Z,63.40
2019-02-26T18:19:13.965Z,65.50
2019-02-26T18:21:43.204Z,65.10
2019-02-26T18:24:08.234Z,64.70
2019-02-26T18:26:34.429Z,65.20
2019-02-26T18:29:00.585Z,67.20
2019-02-26T18:31:26.842Z,69.70
2019-02-26T18:33:55.083Z,69.40
2019-02-26T18:36:21.268Z,69.00
2019-02-26T18:38:48.665Z,68.50
2019-02-26T18:41:16.681Z,67.20
2019-02-26T18:43:47.174Z,66.90
2019-02-26T18:46:11.126Z,67.30
2019-02-26T18:48:37.306Z,67.40
2019-02-26T18:51:03.576Z,68.50
2019-02-26T18:53:29.854Z,68.20
2019-02-26T18:55:56.050Z,71.50
2019-02-26T18:58:22.251Z,71.40
2019-02-26T19:00:48.445Z,71.00
2019-02-26T19:03:14.838Z,71.20
2019-02-26T19:05:41.004Z,71.00
2019-02-26T19:08:07.400Z,70.50
2019-02-26T19:10:34.832Z,70.00
2019-02-26T19:13:02.604Z,69.60
2019-02-26T19:15:33.718Z,69.80
2019-02-26T19:18:02.742Z,69.90
2019-02-26T19:20:35.265Z,70.00
2019-02-26T19:23:02.210Z,70.30
2019-02-26T19:25:28.509Z,70.40
2019-02-26T19:27:55.826Z,70.70
2019-02-26T19:30:22.246Z,71.00
2019-02-26T19:32:49.163Z,71.30
2019-02-26T19:35:16.433Z,71.90
2019-02-26T19:37:45.305Z,71.70
2019-02-26T19:40:17.030Z,72.10
2019-02-26T19:42:43.280Z,72.10
2019-02-26T19:45:11.828Z,72.30
2019-02-26T19:47:39.608Z,72.40
2019-02-26T19:50:16.254Z,72.90
2019-02-26T19:52:42.452Z,73.10
2019-02-26T19:55:15.742Z,73.30
2019-02-26T19:57:42.607Z,73.80
2019-02-26T20:00:14.225Z,72.80
2019-02-26T20:02:40.541Z,72.70
2019-02-26T20:05:09.471Z,73.00
2019-02-26T20:07:37.403Z,73.40
2019-02-26T20:10:06.588Z,73.40
2019-02-26T20:12:32.868Z,73.20
2019-02-26T20:14:59.166Z,72.90
2019-02-26T20:17:25.325Z,73.10
2019-02-26T20:19:51.504Z,73.40
2019-02-26T20:22:17.666Z,73.90
2019-02-26T20:24:43.850Z,74.20
2019-02-26T20:27:10.017Z,74.30
2019-02-26T20:29:36.208Z,74.20
2019-02-26T20:32:02.404Z,74.20
2019-02-26T20:34:29.204Z,74.20
2019-02-26T20:36:55.363Z,74.20
2019-02-26T20:39:21.542Z,73.60
2019-02-26T20:41:47.769Z,73.60
2019-02-26T20:44:14.069Z,73.10
2019-02-26T20:46:40.296Z,73.20
2019-02-26T20:49:06.488Z,73.20
2019-02-26T20:51:34.139Z,74.60
2019-02-26T20:54:00.338Z,74.00
2019-02-26T20:56:28.596Z,74.90
2019-02-26T20:58:54.630Z,74.00
2019-02-26T21:01:20.824Z,73.60
2019-02-26T21:03:47.032Z,73.40
2019-02-26T21:06:15.611Z,73.50
2019-02-26T21:08:41.349Z,73.20
2019-02-26T21:11:07.520Z,73.60
2019-02-26T21:13:35.486Z,74.00
2019-02-26T21:16:01.864Z,74.10
2019-02-26T21:18:30.667Z,74.10
2019-02-26T21:20:57.306Z,74.20
2019-02-26T21:23:27.698Z,74.10
2019-02-26T21:25:51.867Z,73.60
2019-02-26T21:28:18.040Z,73.00
2019-02-26T21:30:45.953Z,72.80
2019-02-26T21:33:12.303Z,72.80
2019-02-26T21:35:38.481Z,73.10
2019-02-26T21:38:05.951Z,72.90
2019-02-26T21:40:32.748Z,72.70
2019-02-26T21:43:01.583Z,73.00
2019-02-26T21:45:29.138Z,74.10
2019-02-26T21:47:55.160Z,74.70
2019-02-26T21:50:22.851Z,75.20
2019-02-26T21:53:04.798Z,75.40
2019-02-26T21:55:17.524Z,75.00
2019-02-26T21:57:43.734Z,75.10
2019-02-26T22:00:20.177Z,75.70
2019-02-26T22:02:46.574Z,75.50
2019-02-26T22:05:12.769Z,75.30
2019-02-26T22:07:39.064Z,75.30
2019-02-26T22:10:08.236Z,76.20
2019-02-26T22:12:34.484Z,76.30
2019-02-26T22:15:00.687Z,76.20
2019-02-26T22:17:26.845Z,76.00
2019-02-26T22:19:53.368Z,76.00
2019-02-26T22:22:19.558Z,75.90
2019-02-26T22:24:46.230Z,75.50
2019-02-26T22:27:12.880Z,75.40
2019-02-26T22:29:39.057Z,75.40
2019-02-26T22:32:05.248Z,75.10
2019-02-26T22:34:31.400Z,75.80
2019-02-26T22:36:57.613Z,75.90
2019-02-26T22:39:23.779Z,76.00
2019-02-26T22:41:50.026Z,76.00
2019-02-26T22:44:18.700Z,76.30
2019-02-26T22:46:44.253Z,76.00
2019-02-26T22:49:10.453Z,76.20
2019-02-26T22:51:36.621Z,76.60
2019-02-26T22:54:03.604Z,76.70
2019-02-26T22:56:29.783Z,77.30
2019-02-26T22:58:55.994Z,78.50
2019-02-26T23:01:30.503Z,77.30
2019-02-26T23:03:54.760Z,76.80
2019-02-26T23:06:20.942Z,76.70
2019-02-26T23:08:47.244Z,77.60
2019-02-26T23:11:15.380Z,77.60
2019-02-26T23:13:43.536Z,77.50
2019-02-26T23:16:10.100Z,76.50
2019-02-26T23:18:36.572Z,76.90
2019-02-26T23:21:02.847Z,77.40
2019-02-26T23:23:30.421Z,77.60
2019-02-26T23:25:57.445Z,78.30
2019-02-26T23:28:23.821Z,79.20
2019-02-26T23:30:50.225Z,79.80
2019-02-26T23:33:16.433Z,79.50
2019-02-26T23:35:42.908Z,79.90
2019-02-26T23:38:09.169Z,79.70
2019-02-26T23:40:35.467Z,79.30
2019-02-26T23:43:03.564Z,80.00
2019-02-26T23:45:29.778Z,80.20
2019-02-26T23:47:55.950Z,79.30
2019-02-26T23:50:22.129Z,78.60
2019-02-26T23:52:48.307Z,78.40
2019-02-26T23:55:14.472Z,78.20
2019-02-26T23:57:40.672Z,77.80
